createdAt,value
2019-03-01T00:01:30.647Z,9.80
2019-03-01T00:04:20.401Z,9.80
2019-03-01T00:07:10.551Z,9.70
2019-03-01T00:10:21.580Z,9.70
2019-03-01T00:13:09.041Z,9.70
2019-03-01T00:16:13.904Z,9.70
2019-03-01T00:19:22.405Z,9.80
2019-03-01T00:22:36.216Z,9.70
2019-03-01T00:25:35.791Z,9.70
2019-03-01T00:28:31.806Z,9.70
2019-03-01T00:31:36.270Z,9.70
2019-03-01T00:34:20.019Z,9.70
2019-03-01T00:37:12.980Z,9.60
2019-03-01T00:40:31.186Z,9.60
2019-03-01T00:43:58.713Z,9.60
2019-03-01T00:46:26.271Z,9.60
2019-03-01T00:48:53.830Z,9.60
2019-03-01T00:51:21.402Z,9.60
2019-03-01T00:53:48.954Z,9.60
2019-03-01T00:56:16.542Z,9.60
2019-03-01T00:58:44.134Z,9.60
2019-03-01T01:01:11.704Z,9.60
2019-03-01T01:03:39.265Z,9.60
2019-03-01T01:06:06.819Z,9.60
2019-03-01T01:08:34.326Z,9.60
2019-03-01T01:11:01.915Z,9.60
2019-03-01T01:13:29.505Z,9.60
2019-03-01T01:15:57.087Z,9.60
2019-03-01T01:18:24.646Z,9.60
2019-03-01T01:20:52.311Z,9.60
2019-03-01T01:23:19.853Z,9.60
2019-03-01T01:25:47.507Z,9.60
2019-03-01T01:28:15.061Z,9.60
2019-03-01T01:30:42.619Z,9.60
2019-03-01T01:33:10.119Z,9.60
2019-03-01T01:35:37.700Z,9.60
2019-03-01T01:38:05.245Z,9.60
2019-03-01T01:40:32.770Z,9.60
2019-03-01T01:43:00.297Z,9.60
2019-03-01T01:45:27.882Z,9.60
2019-03-01T01:47:55.503Z,9.60
2019-03-01T01:50:23.138Z,9.60
2019-03-01T01:52:50.643Z,9.50
2019-03-01T01:55:18.217Z,9.50
2019-03-01T01:57:45.744Z,9.50
2019-03-01T02:00:13.370Z,9.50
2019-03-01T02:02:41.109Z,9.50
2019-03-01T02:05:08.800Z,9.50
2019-03-01T02:07:36.347Z,9.50
2019-03-01T02:10:04.390Z,9.50
2019-03-01T02:12:31.933Z,9.40
2019-03-01T02:14:59.503Z,9.50
2019-03-01T02:17:27.079Z,9.50
2019-03-01T02:19:54.681Z,9.50
2019-03-01T02:22:22.299Z,9.50
2019-03-01T02:24:49.851Z,9.50
2019-03-01T02:27:20.807Z,9.50
2019-03-01T02:29:48.352Z,9.50
2019-03-01T02:32:17.679Z,9.50
2019-03-01T02:34:45.216Z,9.60
2019-03-01T02:37:12.764Z,9.60
2019-03-01T02:39:40.329Z,9.50
2019-03-01T02:42:07.895Z,9.50
2019-03-01T02:44:35.469Z,9.50
2019-03-01T02:47:03.012Z,9.60
2019-03-01T02:49:30.543Z,9.60
2019-03-01T02:51:58.099Z,9.60
2019-03-01T02:54:25.624Z,9.60
2019-03-01T02:56:53.192Z,9.50
2019-03-01T02:59:20.744Z,9.50
2019-03-01T03:01:48.310Z,9.50
2019-03-01T03:04:15.864Z,9.50
2019-03-01T03:06:48.666Z,9.40
2019-03-01T03:09:16.180Z,9.40
2019-03-01T03:11:43.765Z,9.30
2019-03-01T03:14:11.295Z,9.30
2019-03-01T03:16:38.851Z,9.30
2019-03-01T03:19:06.392Z,9.30
2019-03-01T03:21:33.934Z,9.30
2019-03-01T03:24:01.462Z,9.30
2019-03-01T03:26:28.992Z,9.30
2019-03-01T03:28:56.503Z,9.30
2019-03-01T03:31:24.187Z,9.30
2019-03-01T03:33:51.695Z,9.30
2019-03-01T03:36:19.270Z,9.30
2019-03-01T03:38:46.837Z,9.30
2019-03-01T03:41:14.419Z,9.30
2019-03-01T03:43:43.802Z,9.30
2019-03-01T03:46:11.354Z,9.30
2019-03-01T03:48:38.916Z,9.30
2019-03-01T03:51:06.433Z,9.30
2019-03-01T03:53:34.027Z,9.30
2019-03-01T03:56:01.534Z,9.30
2019-03-01T03:58:29.105Z,9.30
2019-03-01T04:00:56.637Z,9.30
2019-03-01T04:03:24.294Z,9.30
2019-03-01T04:05:51.856Z,9.20
2019-03-01T04:08:19.592Z,9.30
2019-03-01T04:10:47.145Z,9.20
2019-03-01T04:13:16.816Z,9.10
2019-03-01T04:15:44.169Z,9.00
2019-03-01T04:18:11.780Z,8.90
2019-03-01T04:20:39.301Z,8.90
2019-03-01T04:23:06.915Z,8.80
2019-03-01T04:25:34.472Z,8.80
2019-03-01T04:28:02.042Z,8.70
2019-03-01T04:30:29.570Z,8.70
2019-03-01T04:32:57.100Z,8.60
2019-03-01T04:35:24.551Z,8.60
2019-03-01T04:37:52.203Z,8.50
2019-03-01T04:40:19.772Z,8.50
2019-03-01T04:42:47.365Z,8.50
2019-03-01T04:45:14.920Z,8.50
2019-03-01T04:47:42.473Z,8.40
2019-03-01T04:50:10.021Z,8.40
2019-03-01T04:52:40.049Z,8.40
2019-03-01T04:55:21.878Z,8.40
2019-03-01T04:57:49.378Z,8.40
2019-03-01T05:00:18.957Z,8.30
2019-03-01T05:02:46.502Z,8.30
2019-03-01T05:05:15.162Z,8.30
2019-03-01T05:07:42.702Z,8.20
2019-03-01T05:10:10.937Z,8.20
2019-03-01T05:12:38.522Z,8.20
2019-03-01T05:15:07.029Z,8.10
2019-03-01T05:17:34.580Z,8.10
2019-03-01T05:20:02.176Z,8.00
2019-03-01T05:22:29.711Z,8.00
2019-03-01T05:24:57.298Z,8.00
2019-03-01T05:27:25.930Z,7.90
2019-03-01T05:29:53.446Z,7.80
2019-03-01T05:32:20.978Z,7.80
2019-03-01T05:34:48.544Z,7.80
2019-03-01T05:37:16.061Z,7.70
2019-03-01T05:39:46.414Z,7.70
2019-03-01T05:42:24.526Z,7.70
2019-03-01T05:44:52.151Z,7.70
2019-03-01T05:47:19.718Z,7.70
2019-03-01T05:49:47.363Z,7.70
2019-03-01T05:52:14.980Z,7.70
2019-03-01T05:54:42.619Z,7.70
2019-03-01T05:57:12.253Z,7.60
2019-03-01T05:59:39.904Z,7.60
2019-03-01T06:02:50.459Z,7.60
2019-03-01T06:05:21.430Z,7.70
2019-03-01T06:08:11.054Z,7.60
2019-03-01T06:10:58.967Z,7.60
2019-03-01T06:14:17.077Z,7.60
2019-03-01T06:17:11.697Z,7.60
2019-03-01T06:20:13.622Z,7.50
2019-03-01T06:23:28.489Z,7.50
2019-03-01T06:26:26.665Z,7.50
2019-03-01T06:29:21.825Z,7.50
2019-03-01T06:32:28.322Z,7.50
2019-03-01T06:35:23.641Z,7.50
2019-03-01T06:38:52.369Z,7.60
2019-03-01T06:41:37.380Z,7.60
2019-03-01T06:44:33.243Z,7.60
2019-03-01T06:47:31.090Z,7.60
2019-03-01T06:50:08.614Z,7.60
2019-03-01T06:52:36.372Z,7.60
2019-03-01T06:55:04.299Z,7.60
2019-03-01T06:57:31.822Z,7.60
2019-03-01T06:59:59.457Z,7.60
2019-03-01T07:02:45.326Z,7.60
2019-03-01T07:05:12.905Z,7.60
2019-03-01T07:07:40.377Z,7.60
2019-03-01T07:10:08.005Z,7.60
2019-03-01T07:12:35.515Z,7.50
2019-03-01T07:15:03.906Z,7.50
2019-03-01T07:17:31.437Z,7.50
2019-03-01T07:19:59.013Z,7.50
2019-03-01T07:22:26.543Z,7.50
2019-03-01T07:24:54.133Z,7.50
2019-03-01T07:27:21.738Z,7.40
2019-03-01T07:29:49.299Z,7.50
2019-03-01T07:32:16.800Z,7.50
2019-03-01T07:34:44.342Z,7.50
2019-03-01T07:37:11.945Z,7.50
2019-03-01T07:39:39.480Z,7.50
2019-03-01T07:42:07.050Z,7.50
2019-03-01T07:44:34.583Z,7.50
2019-03-01T07:47:05.204Z,7.50
2019-03-01T07:49:32.798Z,7.50
2019-03-01T07:52:05.026Z,7.50
2019-03-01T07:54:32.134Z,7.50
2019-03-01T07:56:59.747Z,7.50
2019-03-01T07:59:31.812Z,7.50
2019-03-01T08:02:00.765Z,7.50
2019-03-01T08:04:29.682Z,7.60
2019-03-01T08:06:57.266Z,7.60
2019-03-01T08:09:24.868Z,7.60
2019-03-01T08:11:52.386Z,7.60
2019-03-01T08:14:19.947Z,7.60
2019-03-01T08:16:47.481Z,7.60
2019-03-01T08:19:16.150Z,7.60
2019-03-01T08:21:45.895Z,7.60
2019-03-01T08:24:14.926Z,7.60
2019-03-01T08:26:42.437Z,7.60
2019-03-01T08:29:09.959Z,7.60
2019-03-01T08:31:37.502Z,7.60
2019-03-01T08:34:05.025Z,7.70
2019-03-01T08:36:33.993Z,7.70
2019-03-01T08:39:04.885Z,7.70
2019-03-01T08:41:31.081Z,7.70
2019-03-01T08:44:00.284Z,7.70
2019-03-01T08:46:27.900Z,7.70
2019-03-01T08:48:55.432Z,7.70
2019-03-01T08:51:26.553Z,7.70
2019-03-01T08:53:52.336Z,7.70
2019-03-01T08:56:25.890Z,7.70
2019-03-01T08:58:49.230Z,7.70
2019-03-01T09:01:17.014Z,7.70
2019-03-01T09:03:51.925Z,7.80
2019-03-01T09:06:19.420Z,7.80
2019-03-01T09:08:47.001Z,7.80
2019-03-01T09:11:14.580Z,7.80
2019-03-01T09:13:42.398Z,7.80
2019-03-01T09:16:10.028Z,7.80
2019-03-01T09:18:37.594Z,7.80
2019-03-01T09:21:06.194Z,7.70
2019-03-01T09:23:33.838Z,7.70
2019-03-01T09:26:01.383Z,7.70
2019-03-01T09:28:28.932Z,7.60
2019-03-01T09:30:56.419Z,7.60
2019-03-01T09:33:23.978Z,7.60
2019-03-01T09:36:14.410Z,7.60
2019-03-01T09:38:44.171Z,7.60
2019-03-01T09:41:11.769Z,7.60
2019-03-01T09:43:39.305Z,7.50
2019-03-01T09:46:06.823Z,7.50
2019-03-01T09:48:34.376Z,7.50
2019-03-01T09:51:01.964Z,7.50
2019-03-01T09:53:30.534Z,7.50
2019-03-01T09:56:00.135Z,7.50
2019-03-01T09:58:27.725Z,7.50
2019-03-01T10:00:59.401Z,7.50
2019-03-01T10:03:26.935Z,7.50
2019-03-01T10:05:54.503Z,7.50
2019-03-01T10:08:23.676Z,7.50
2019-03-01T10:10:51.193Z,7.50
2019-03-01T10:13:18.719Z,7.50
2019-03-01T10:15:46.331Z,7.40
2019-03-01T10:18:13.878Z,7.40
2019-03-01T10:20:41.449Z,7.40
2019-03-01T10:23:10.573Z,7.50
2019-03-01T10:25:38.143Z,7.50
2019-03-01T10:28:08.023Z,7.50
2019-03-01T10:30:35.547Z,7.50
2019-03-01T10:33:03.186Z,7.50
2019-03-01T10:35:30.730Z,7.50
2019-03-01T10:37:58.254Z,7.50
2019-03-01T10:40:25.837Z,7.60
2019-03-01T10:42:53.351Z,7.50
2019-03-01T10:45:22.767Z,7.50
2019-03-01T10:47:50.315Z,7.50
2019-03-01T10:50:17.903Z,7.50
2019-03-01T10:52:45.420Z,7.50
2019-03-01T10:55:14.736Z,7.60
2019-03-01T10:57:42.243Z,7.60
2019-03-01T11:00:16.364Z,7.60
2019-03-01T11:02:44.264Z,7.60
2019-03-01T11:05:11.784Z,7.70
2019-03-01T11:07:39.251Z,7.70
2019-03-01T11:10:08.145Z,7.70
2019-03-01T11:12:35.691Z,7.80
2019-03-01T11:15:03.835Z,7.90
2019-03-01T11:17:31.278Z,7.90
2019-03-01T11:19:58.839Z,7.90
2019-03-01T11:22:26.395Z,7.90
2019-03-01T11:24:53.918Z,7.90
2019-03-01T11:27:21.506Z,8.00
2019-03-01T11:29:49.037Z,8.00
2019-03-01T11:32:16.560Z,8.00
2019-03-01T11:34:44.130Z,8.10
2019-03-01T11:37:11.680Z,8.30
2019-03-01T11:39:39.262Z,8.40
2019-03-01T11:42:06.811Z,8.50
2019-03-01T11:44:34.378Z,8.50
2019-03-01T11:47:01.957Z,8.40
2019-03-01T11:49:29.491Z,8.40
2019-03-01T11:51:57.055Z,8.40
2019-03-01T11:54:24.594Z,8.40
2019-03-01T11:56:53.588Z,8.40
2019-03-01T11:59:21.448Z,8.40
2019-03-01T12:01:48.977Z,8.40
2019-03-01T12:04:16.518Z,8.30
2019-03-01T12:06:44.076Z,8.30
2019-03-01T12:09:11.660Z,8.30
2019-03-01T12:11:39.214Z,8.30
2019-03-01T12:14:06.898Z,8.30
2019-03-01T12:16:34.458Z,8.30
2019-03-01T12:19:01.991Z,8.40
2019-03-01T12:21:29.529Z,8.40
2019-03-01T12:23:57.114Z,8.40
2019-03-01T12:26:24.623Z,8.40
2019-03-01T12:28:52.090Z,8.50
2019-03-01T12:31:19.636Z,8.50
2019-03-01T12:33:47.146Z,8.50
2019-03-01T12:36:14.685Z,8.50
2019-03-01T12:38:44.394Z,8.50
2019-03-01T12:41:11.999Z,8.50
2019-03-01T12:43:39.537Z,8.50
2019-03-01T12:46:07.087Z,8.50
2019-03-01T12:48:34.610Z,8.50
2019-03-01T12:51:02.150Z,8.40
2019-03-01T12:53:29.591Z,8.40
2019-03-01T12:55:57.118Z,8.40
2019-03-01T12:58:24.601Z,8.30
2019-03-01T13:01:03.570Z,8.30
2019-03-01T13:03:31.138Z,8.30
2019-03-01T13:06:00.588Z,8.30
2019-03-01T13:08:30.461Z,8.30
2019-03-01T13:10:58.094Z,8.30
2019-03-01T13:13:28.361Z,8.40
2019-03-01T13:15:55.887Z,8.40
2019-03-01T13:18:23.418Z,8.40
2019-03-01T13:20:50.961Z,8.40
2019-03-01T13:23:18.500Z,8.30
2019-03-01T13:25:46.090Z,8.30
2019-03-01T13:28:13.631Z,8.30
2019-03-01T13:30:41.196Z,8.40
2019-03-01T13:33:08.726Z,8.40
2019-03-01T13:35:36.256Z,8.50
2019-03-01T13:38:04.100Z,8.50
2019-03-01T13:40:31.881Z,8.50
2019-03-01T13:42:59.396Z,8.60
2019-03-01T13:45:26.841Z,8.60
2019-03-01T13:47:54.409Z,8.60
2019-03-01T13:50:24.018Z,8.60
2019-03-01T13:52:51.580Z,8.60
2019-03-01T13:55:22.183Z,8.60
2019-03-01T13:57:50.056Z,8.50
2019-03-01T14:00:17.991Z,8.50
2019-03-01T14:02:46.908Z,8.40
2019-03-01T14:05:17.029Z,8.40
2019-03-01T14:07:48.348Z,8.40
2019-03-01T14:10:17.436Z,8.40
2019-03-01T14:12:44.971Z,8.40
2019-03-01T14:15:14.239Z,8.50
2019-03-01T14:17:41.759Z,8.50
2019-03-01T14:20:19.057Z,8.50
2019-03-01T14:22:44.116Z,8.50
2019-03-01T14:25:13.687Z,8.50
2019-03-01T14:27:41.216Z,8.50
2019-03-01T14:30:11.769Z,8.50
2019-03-01T14:32:39.333Z,8.50
2019-03-01T14:35:07.254Z,8.60
2019-03-01T14:37:34.857Z,8.60
2019-03-01T14:40:02.405Z,8.70
2019-03-01T14:42:33.440Z,8.70
2019-03-01T14:45:00.961Z,8.70
2019-03-01T14:47:29.136Z,8.80
2019-03-01T14:50:00.490Z,8.80
2019-03-01T14:52:28.028Z,8.80
2019-03-01T14:54:55.646Z,8.70
2019-03-01T14:57:37.813Z,8.70
2019-03-01T15:00:15.360Z,8.60
2019-03-01T15:03:32.203Z,8.50
2019-03-01T15:06:01.086Z,8.50
2019-03-01T15:08:28.851Z,8.50
2019-03-01T15:10:59.447Z,8.40
2019-03-01T15:13:31.463Z,8.40
2019-03-01T15:16:01.120Z,8.30
2019-03-01T15:18:28.886Z,8.20
2019-03-01T15:21:02.554Z,8.20
2019-03-01T15:23:30.506Z,8.20
2019-03-01T15:26:02.890Z,8.10
2019-03-01T15:28:32.512Z,8.00
2019-03-01T15:31:02.950Z,8.00
2019-03-01T15:33:33.682Z,8.00
2019-03-01T15:36:03.729Z,7.90
2019-03-01T15:38:33.122Z,7.90
2019-03-01T15:41:06.392Z,7.90
2019-03-01T15:43:37.203Z,7.90
2019-03-01T15:46:11.520Z,7.90
2019-03-01T15:48:43.026Z,7.90
2019-03-01T15:51:10.596Z,8.00
2019-03-01T15:53:40.610Z,8.00
2019-03-01T15:56:14.104Z,8.00
2019-03-01T15:58:47.808Z,8.10
2019-03-01T16:01:15.347Z,8.10
2019-03-01T16:03:43.130Z,8.10
2019-03-01T16:06:14.099Z,8.10
2019-03-01T16:08:48.059Z,8.20
2019-03-01T16:11:16.764Z,8.20
2019-03-01T16:13:48.017Z,8.20
2019-03-01T16:16:15.119Z,8.20
2019-03-01T16:18:42.757Z,8.20
2019-03-01T16:21:10.317Z,8.20
2019-03-01T16:23:38.035Z,8.20
2019-03-01T16:26:08.082Z,8.10
2019-03-01T16:29:07.215Z,8.10
2019-03-01T16:31:32.120Z,8.10
2019-03-01T16:34:04.374Z,8.10
2019-03-01T16:36:41.105Z,8.10
2019-03-01T16:39:13.940Z,8.10
2019-03-01T16:41:42.921Z,8.10
2019-03-01T16:44:11.087Z,8.10
2019-03-01T16:46:40.924Z,8.10
2019-03-01T16:49:08.762Z,8.10
2019-03-01T16:51:38.658Z,8.00
2019-03-01T16:54:06.320Z,8.00
2019-03-01T16:56:34.597Z,8.00
2019-03-01T16:59:07.138Z,8.00
2019-03-01T17:01:35.923Z,7.90
2019-03-01T17:04:03.714Z,7.90
2019-03-01T17:06:38.055Z,7.90
2019-03-01T17:09:15.598Z,7.90
2019-03-01T17:11:44.455Z,7.90
2019-03-01T17:14:15.962Z,7.90
2019-03-01T17:16:43.851Z,7.90
2019-03-01T17:19:14.568Z,7.90
2019-03-01T17:21:42.145Z,7.90
2019-03-01T17:24:12.329Z,7.80
2019-03-01T17:26:43.566Z,7.80
2019-03-01T17:29:14.767Z,7.80
2019-03-01T17:31:45.085Z,7.80
2019-03-01T17:34:12.679Z,7.70
2019-03-01T17:36:42.237Z,7.70
2019-03-01T17:39:10.837Z,7.70
2019-03-01T17:41:48.238Z,7.70
2019-03-01T17:44:23.954Z,7.70
2019-03-01T17:46:54.164Z,7.70
2019-03-01T17:49:23.581Z,7.70
2019-03-01T17:51:56.516Z,7.60
2019-03-01T17:54:23.203Z,7.60
2019-03-01T17:56:57.199Z,7.60
2019-03-01T17:59:25.450Z,7.60
2019-03-01T18:01:54.791Z,7.50
2019-03-01T18:04:22.355Z,7.50
2019-03-01T18:06:52.357Z,7.50
2019-03-01T18:09:21.733Z,7.50
2019-03-01T18:11:50.211Z,7.50
2019-03-01T18:14:17.764Z,7.50
2019-03-01T18:16:45.526Z,7.50
2019-03-01T18:19:16.115Z,7.50
2019-03-01T18:21:50.056Z,7.60
2019-03-01T18:24:17.489Z,7.50
2019-03-01T18:26:45.119Z,7.50
2019-03-01T18:29:12.643Z,7.50
2019-03-01T18:31:40.247Z,7.40
2019-03-01T18:34:07.811Z,7.40
2019-03-01T18:36:35.402Z,7.40
2019-03-01T18:39:07.832Z,7.40
2019-03-01T18:41:40.844Z,7.30
2019-03-01T18:44:08.524Z,7.30
2019-03-01T18:46:38.059Z,7.30
2019-03-01T18:49:06.245Z,7.30
2019-03-01T18:51:34.225Z,7.30
2019-03-01T18:54:08.503Z,7.30
2019-03-01T18:56:36.129Z,7.30
2019-03-01T18:59:03.778Z,7.30
2019-03-01T19:01:31.471Z,7.30
2019-03-01T19:03:59.075Z,7.30
2019-03-01T19:06:26.563Z,7.30
2019-03-01T19:08:54.239Z,7.20
2019-03-01T19:11:21.811Z,7.20
2019-03-01T19:13:49.485Z,7.20
2019-03-01T19:16:18.955Z,7.30
2019-03-01T19:18:51.220Z,7.20
2019-03-01T19:21:18.977Z,7.20
2019-03-01T19:23:46.609Z,7.20
2019-03-01T19:26:14.179Z,7.20
2019-03-01T19:28:41.708Z,7.20
2019-03-01T19:31:09.275Z,7.20
2019-03-01T19:33:37.798Z,7.20
2019-03-01T19:36:06.166Z,7.20
2019-03-01T19:38:33.728Z,7.20
2019-03-01T19:41:01.295Z,7.20
2019-03-01T19:43:30.931Z,7.20
2019-03-01T19:45:58.469Z,7.20
2019-03-01T19:48:26.251Z,7.20
2019-03-01T19:50:53.776Z,7.20
2019-03-01T19:53:21.754Z,7.20
2019-03-01T19:55:59.682Z,7.20
2019-03-01T19:58:29.233Z,7.20
2019-03-01T20:01:08.911Z,7.20
2019-03-01T20:03:42.594Z,7.20
2019-03-01T20:06:11.619Z,7.20
2019-03-01T20:08:39.239Z,7.20
2019-03-01T20:11:06.925Z,7.20
2019-03-01T20:13:34.468Z,7.20
2019-03-01T20:16:02.074Z,7.20
2019-03-01T20:18:32.900Z,7.20
2019-03-01T20:21:05.873Z,7.10
2019-03-01T20:23:34.479Z,7.20
2019-03-01T20:26:07.177Z,7.20
2019-03-01T20:28:35.252Z,7.20
2019-03-01T20:31:05.807Z,7.20
2019-03-01T20:33:33.472Z,7.20
2019-03-01T20:36:04.832Z,7.20
2019-03-01T20:38:37.015Z,7.20
2019-03-01T20:41:07.639Z,7.20
2019-03-01T20:43:41.846Z,7.20
2019-03-01T20:46:08.101Z,7.20
2019-03-01T20:48:38.886Z,7.20
2019-03-01T20:51:09.565Z,7.20
2019-03-01T20:53:37.133Z,7.20
2019-03-01T20:56:09.916Z,7.20
2019-03-01T20:58:40.595Z,7.20
2019-03-01T21:01:07.114Z,7.20
2019-03-01T21:03:37.744Z,7.20
2019-03-01T21:06:10.321Z,7.20
2019-03-01T21:08:44.560Z,7.20
2019-03-01T21:11:16.028Z,7.20
2019-03-01T21:13:53.692Z,7.20
2019-03-01T21:16:24.882Z,7.20
2019-03-01T21:18:52.540Z,7.20
2019-03-01T21:21:25.626Z,7.20
2019-03-01T21:23:56.310Z,7.20
2019-03-01T21:26:51.220Z,7.10
2019-03-01T21:29:17.676Z,7.20
2019-03-01T21:31:45.219Z,7.20
2019-03-01T21:34:14.817Z,7.20
2019-03-01T21:36:42.196Z,7.20
2019-03-01T21:39:10.269Z,7.20
2019-03-01T21:41:37.809Z,7.20
2019-03-01T21:44:10.141Z,7.20
2019-03-01T21:46:35.154Z,7.20
2019-03-01T21:49:02.780Z,7.20
2019-03-01T21:51:30.393Z,7.20
2019-03-01T21:53:59.867Z,7.20
2019-03-01T21:56:27.423Z,7.20
2019-03-01T21:58:56.085Z,7.20
2019-03-01T22:01:23.669Z,7.20
2019-03-01T22:03:51.257Z,7.20
2019-03-01T22:06:20.689Z,7.20
2019-03-01T22:08:48.696Z,7.20
2019-03-01T22:11:17.350Z,7.20
2019-03-01T22:13:44.949Z,7.20
2019-03-01T22:16:13.440Z,7.20
2019-03-01T22:18:41.001Z,7.20
2019-03-01T22:21:08.637Z,7.20
2019-03-01T22:23:38.785Z,7.20
2019-03-01T22:26:09.591Z,7.20
2019-03-01T22:28:36.134Z,7.20
2019-03-01T22:31:04.739Z,7.20
2019-03-01T22:33:32.288Z,7.20
2019-03-01T22:35:59.893Z,7.20
2019-03-01T22:38:27.415Z,7.20
2019-03-01T22:41:00.638Z,7.20
2019-03-01T22:43:30.144Z,7.20
2019-03-01T22:45:57.713Z,7.20
2019-03-01T22:48:26.450Z,7.20
2019-03-01T22:50:54.009Z,7.20
2019-03-01T22:53:21.585Z,7.20
2019-03-01T22:55:49.224Z,7.20
2019-03-01T22:58:16.734Z,7.20
2019-03-01T23:01:16.001Z,7.20
2019-03-01T23:03:46.130Z,7.20
2019-03-01T23:06:14.686Z,7.30
2019-03-01T23:08:44.887Z,7.30
2019-03-01T23:11:13.496Z,7.20
2019-03-01T23:13:41.239Z,7.20
2019-03-01T23:16:08.825Z,7.20
2019-03-01T23:18:45.014Z,7.30
2019-03-01T23:21:12.600Z,7.20
2019-03-01T23:23:40.081Z,7.30
2019-03-01T23:26:07.756Z,7.30
2019-03-01T23:28:35.434Z,7.30
2019-03-01T23:31:03.642Z,7.30
2019-03-01T23:33:32.726Z,7.30
2019-03-01T23:36:00.260Z,7.30
2019-03-01T23:38:27.972Z,7.30
2019-03-01T23:40:55.654Z,7.30
2019-03-01T23:43:23.302Z,7.30
2019-03-01T23:45:53.726Z,7.30
2019-03-01T23:48:20.300Z,7.20
2019-03-01T23:50:47.863Z,7.20
2019-03-01T23:53:15.400Z,7.20
2019-03-01T23:55:42.970Z,7.20
2019-03-01T23:58:12.586Z,7.20
